sensor_id;sensor_type;location;lat;lon;timestamp;P1;durP1;ratioP1;P2;durP2;ratioP2
691;SDS011;328;50.086;8.576;2023-03-25T00:01:39;0.60;;;0.40;;
691;SDS011;328;50.086;8.576;2023-03-25T00:04:07;1.73;;;0.67;;
691;SDS011;328;50.086;8.576;2023-03-25T00:06:34;3.40;;;1.00;;
691;SDS011;328;50.086;8.576;2023-03-25T00:09:02;0.70;;;0.50;;
691;SDS011;328;50.086;8.576;2023-03-25T00:11:31;0.80;;;0.50;;
691;SDS011;328;50.086;8.576;2023-03-25T00:13:58;0.60;;;0.40;;
691;SDS011;328;50.086;8.576;2023-03-25T00:16:26;2.07;;;0.57;;
691;SDS011;328;50.086;8.576;2023-03-25T00:18:53;1.47;;;0.40;;
691;SDS011;328;50.086;8.576;2023-03-25T00:21:25;1.10;;;0.50;;
691;SDS011;328;50.086;8.576;2023-03-25T00:23:52;0.70;;;0.40;;
691;SDS011;328;50.086;8.576;2023-03-25T00:26:20;0.80;;;0.40;;
691;SDS011;328;50.086;8.576;2023-03-25T00:28:49;0.80;;;0.40;;
691;SDS011;328;50.086;8.576;2023-03-25T00:31:16;0.80;;;0.40;;
691;SDS011;328;50.086;8.576;2023-03-25T00:33:44;0.67;;;0.43;;
691;SDS011;328;50.086;8.576;2023-03-25T00:36:12;0.80;;;0.50;;
691;SDS011;328;50.086;8.576;2023-03-25T00:38:39;1.47;;;0.47;;
691;SDS011;328;50.086;8.576;2023-03-25T00:41:15;1.53;;;0.40;;
691;SDS011;328;50.086;8.576;2023-03-25T00:43:50;0.60;;;0.40;;
691;SDS011;328;50.086;8.576;2023-03-25T00:46:18;0.90;;;0.40;;
691;SDS011;328;50.086;8.576;2023-03-25T00:48:47;0.90;;;0.50;;
691;SDS011;328;50.086;8.576;2023-03-25T00:51:15;1.20;;;0.50;;
691;SDS011;328;50.086;8.576;2023-03-25T00:53:46;1.47;;;0.50;;
691;SDS011;328;50.086;8.576;2023-03-25T00:56:17;1.90;;;0.60;;
691;SDS011;328;50.086;8.576;2023-03-25T00:58:45;1.77;;;0.60;;
691;SDS011;328;50.086;8.576;2023-03-25T01:01:14;0.80;;;0.50;;
691;SDS011;328;50.086;8.576;2023-03-25T01:03:42;2.00;;;0.60;;
691;SDS011;328;50.086;8.576;2023-03-25T01:06:10;4.60;;;0.80;;
691;SDS011;328;50.086;8.576;2023-03-25T01:08:38;1.47;;;0.80;;
691;SDS011;328;50.086;8.576;2023-03-25T01:11:14;0.70;;;0.50;;
691;SDS011;328;50.086;8.576;2023-03-25T01:13:43;0.70;;;0.40;;
691;SDS011;328;50.086;8.576;2023-03-25T01:16:11;0.70;;;0.50;;
691;SDS011;328;50.086;8.576;2023-03-25T01:18:40;2.10;;;0.57;;
691;SDS011;328;50.086;8.576;2023-03-25T01:21:07;1.53;;;0.50;;
691;SDS011;328;50.086;8.576;2023-03-25T01:23:35;1.70;;;0.50;;
691;SDS011;328;50.086;8.576;2023-03-25T01:26:03;1.83;;;0.40;;
691;SDS011;328;50.086;8.576;2023-03-25T01:28:30;0.80;;;0.50;;
691;SDS011;328;50.086;8.576;2023-03-25T01:31:01;1.33;;;0.50;;
691;SDS011;328;50.086;8.576;2023-03-25T01:33:29;2.80;;;0.50;;
691;SDS011;328;50.086;8.576;2023-03-25T01:35:59;0.70;;;0.40;;
691;SDS011;328;50.086;8.576;2023-03-25T01:38:27;2.60;;;0.60;;
691;SDS011;328;50.086;8.576;2023-03-25T01:40:55;1.90;;;0.57;;
691;SDS011;328;50.086;8.576;2023-03-25T01:43:23;1.37;;;0.50;;
691;SDS011;328;50.086;8.576;2023-03-25T01:45:51;0.93;;;0.40;;
691;SDS011;328;50.086;8.576;2023-03-25T01:48:19;0.80;;;0.50;;
691;SDS011;328;50.086;8.576;2023-03-25T01:50:49;1.00;;;0.60;;
691;SDS011;328;50.086;8.576;2023-03-25T01:53:21;0.83;;;0.50;;
691;SDS011;328;50.086;8.576;2023-03-25T01:55:48;0.97;;;0.50;;
691;SDS011;328;50.086;8.576;2023-03-25T01:58:18;2.20;;;0.60;;
691;SDS011;328;50.086;8.576;2023-03-25T02:00:47;2.00;;;0.50;;
691;SDS011;328;50.086;8.576;2023-03-25T02:03:15;2.43;;;0.70;;
691;SDS011;328;50.086;8.576;2023-03-25T02:05:45;0.73;;;0.50;;
691;SDS011;328;50.086;8.576;2023-03-25T02:08:16;2.80;;;0.60;;
691;SDS011;328;50.086;8.576;2023-03-25T02:10:47;0.70;;;0.50;;
691;SDS011;328;50.086;8.576;2023-03-25T02:13:14;1.40;;;0.73;;
691;SDS011;328;50.086;8.576;2023-03-25T02:15:54;2.83;;;1.43;;
691;SDS011;328;50.086;8.576;2023-03-25T02:18:33;3.60;;;0.83;;
691;SDS011;328;50.086;8.576;2023-03-25T02:24:18;3.17;;;0.87;;
691;SDS011;328;50.086;8.576;2023-03-25T02:27:07;1.43;;;0.60;;
691;SDS011;328;50.086;8.576;2023-03-25T02:29:53;0.97;;;0.70;;
691;SDS011;328;50.086;8.576;2023-03-25T02:33:01;0.90;;;0.70;;
691;SDS011;328;50.086;8.576;2023-03-25T02:35:42;1.30;;;0.77;;
691;SDS011;328;50.086;8.576;2023-03-25T02:38:22;7.23;;;0.80;;
691;SDS011;328;50.086;8.576;2023-03-25T02:40:55;0.90;;;0.63;;
691;SDS011;328;50.086;8.576;2023-03-25T02:43:26;3.30;;;1.17;;
691;SDS011;328;50.086;8.576;2023-03-25T02:45:58;1.90;;;1.03;;
691;SDS011;328;50.086;8.576;2023-03-25T02:48:28;3.27;;;1.23;;
691;SDS011;328;50.086;8.576;2023-03-25T02:50:59;2.80;;;1.77;;
691;SDS011;328;50.086;8.576;2023-03-25T02:53:32;3.00;;;1.17;;
691;SDS011;328;50.086;8.576;2023-03-25T02:56:02;2.20;;;0.80;;
691;SDS011;328;50.086;8.576;2023-03-25T02:58:33;2.07;;;0.70;;
691;SDS011;328;50.086;8.576;2023-03-25T03:01:01;1.47;;;0.80;;
691;SDS011;328;50.086;8.576;2023-03-25T03:03:29;1.57;;;0.70;;
691;SDS011;328;50.086;8.576;2023-03-25T03:05:57;2.40;;;0.63;;
691;SDS011;328;50.086;8.576;2023-03-25T03:08:29;1.40;;;0.90;;
691;SDS011;328;50.086;8.576;2023-03-25T03:11:09;1.80;;;0.57;;
691;SDS011;328;50.086;8.576;2023-03-25T03:13:45;2.10;;;1.03;;
691;SDS011;328;50.086;8.576;2023-03-25T03:16:21;1.60;;;0.87;;
691;SDS011;328;50.086;8.576;2023-03-25T03:18:56;2.80;;;0.90;;
691;SDS011;328;50.086;8.576;2023-03-25T03:21:31;3.70;;;0.77;;
691;SDS011;328;50.086;8.576;2023-03-25T03:24:06;2.00;;;0.83;;
691;SDS011;328;50.086;8.576;2023-03-25T03:26:37;1.00;;;0.60;;
691;SDS011;328;50.086;8.576;2023-03-25T03:29:08;2.10;;;0.90;;
691;SDS011;328;50.086;8.576;2023-03-25T03:31:37;1.17;;;0.50;;
691;SDS011;328;50.086;8.576;2023-03-25T03:34:27;2.60;;;0.53;;
691;SDS011;328;50.086;8.576;2023-03-25T03:36:59;2.50;;;0.70;;
691;SDS011;328;50.086;8.576;2023-03-25T03:39:29;2.13;;;0.70;;
691;SDS011;328;50.086;8.576;2023-03-25T03:41:59;2.30;;;0.50;;
691;SDS011;328;50.086;8.576;2023-03-25T03:44:29;1.77;;;0.70;;
691;SDS011;328;50.086;8.576;2023-03-25T03:46:58;1.60;;;0.70;;
691;SDS011;328;50.086;8.576;2023-03-25T03:49:28;1.53;;;0.70;;
691;SDS011;328;50.086;8.576;2023-03-25T03:52:00;1.57;;;0.70;;
691;SDS011;328;50.086;8.576;2023-03-25T03:54:36;1.43;;;0.60;;
691;SDS011;328;50.086;8.576;2023-03-25T03:57:06;2.30;;;0.80;;
691;SDS011;328;50.086;8.576;2023-03-25T03:59:36;1.50;;;0.60;;
691;SDS011;328;50.086;8.576;2023-03-25T04:02:10;0.93;;;0.67;;
691;SDS011;328;50.086;8.576;2023-03-25T04:04:41;1.47;;;0.67;;
691;SDS011;328;50.086;8.576;2023-03-25T04:07:10;1.50;;;0.90;;
691;SDS011;328;50.086;8.576;2023-03-25T04:09:43;1.20;;;0.63;;
691;SDS011;328;50.086;8.576;2023-03-25T04:12:21;1.10;;;0.63;;
691;SDS011;328;50.086;8.576;2023-03-25T04:14:52;1.53;;;0.70;;
691;SDS011;328;50.086;8.576;2023-03-25T04:17:20;1.80;;;0.90;;
691;SDS011;328;50.086;8.576;2023-03-25T04:19:49;1.53;;;0.70;;
691;SDS011;328;50.086;8.576;2023-03-25T04:22:18;1.50;;;0.80;;
691;SDS011;328;50.086;8.576;2023-03-25T04:24:48;1.13;;;0.70;;
691;SDS011;328;50.086;8.576;2023-03-25T04:27:17;1.30;;;0.90;;
691;SDS011;328;50.086;8.576;2023-03-25T04:29:48;3.07;;;1.97;;
691;SDS011;328;50.086;8.576;2023-03-25T04:32:16;1.40;;;1.00;;
691;SDS011;328;50.086;8.576;2023-03-25T04:34:44;3.13;;;0.80;;
691;SDS011;328;50.086;8.576;2023-03-25T04:37:13;1.47;;;0.80;;
691;SDS011;328;50.086;8.576;2023-03-25T04:39:40;2.67;;;1.10;;
691;SDS011;328;50.086;8.576;2023-03-25T04:42:09;1.00;;;0.87;;
691;SDS011;328;50.086;8.576;2023-03-25T04:44:38;2.67;;;1.00;;
691;SDS011;328;50.086;8.576;2023-03-25T04:47:06;1.60;;;0.80;;
691;SDS011;328;50.086;8.576;2023-03-25T04:49:37;1.00;;;0.80;;
691;SDS011;328;50.086;8.576;2023-03-25T04:52:04;2.50;;;1.10;;
691;SDS011;328;50.086;8.576;2023-03-25T04:54:34;1.63;;;1.00;;
691;SDS011;328;50.086;8.576;2023-03-25T04:57:03;2.53;;;0.80;;
691;SDS011;328;50.086;8.576;2023-03-25T04:59:32;1.37;;;0.70;;
691;SDS011;328;50.086;8.576;2023-03-25T05:02:02;2.70;;;0.90;;
691;SDS011;328;50.086;8.576;2023-03-25T05:04:31;1.87;;;0.80;;
691;SDS011;328;50.086;8.576;2023-03-25T05:06:59;1.10;;;0.93;;
691;SDS011;328;50.086;8.576;2023-03-25T05:09:27;2.10;;;1.10;;
691;SDS011;328;50.086;8.576;2023-03-25T05:11:55;1.43;;;0.60;;
691;SDS011;328;50.086;8.576;2023-03-25T05:14:22;3.17;;;0.90;;
691;SDS011;328;50.086;8.576;2023-03-25T05:16:51;1.10;;;0.90;;
691;SDS011;328;50.086;8.576;2023-03-25T05:19:20;4.13;;;1.20;;
691;SDS011;328;50.086;8.576;2023-03-25T05:21:48;1.80;;;1.17;;
691;SDS011;328;50.086;8.576;2023-03-25T05:24:15;4.30;;;1.03;;
691;SDS011;328;50.086;8.576;2023-03-25T05:26:43;2.67;;;1.20;;
691;SDS011;328;50.086;8.576;2023-03-25T05:29:17;1.70;;;0.90;;
691;SDS011;328;50.086;8.576;2023-03-25T05:31:45;1.30;;;0.80;;
691;SDS011;328;50.086;8.576;2023-03-25T05:34:15;1.33;;;0.87;;
691;SDS011;328;50.086;8.576;2023-03-25T05:36:43;1.77;;;0.90;;
691;SDS011;328;50.086;8.576;2023-03-25T05:39:11;1.57;;;1.13;;
691;SDS011;328;50.086;8.576;2023-03-25T05:41:38;3.23;;;1.03;;
691;SDS011;328;50.086;8.576;2023-03-25T05:44:06;1.57;;;1.23;;
691;SDS011;328;50.086;8.576;2023-03-25T05:46:34;4.80;;;1.00;;
691;SDS011;328;50.086;8.576;2023-03-25T05:49:02;3.23;;;1.30;;
691;SDS011;328;50.086;8.576;2023-03-25T05:51:31;1.37;;;1.00;;
691;SDS011;328;50.086;8.576;2023-03-25T05:54:02;2.47;;;0.93;;
691;SDS011;328;50.086;8.576;2023-03-25T05:56:33;2.20;;;1.10;;
691;SDS011;328;50.086;8.576;2023-03-25T05:59:02;2.30;;;0.90;;
691;SDS011;328;50.086;8.576;2023-03-25T06:01:30;5.40;;;1.50;;
691;SDS011;328;50.086;8.576;2023-03-25T06:03:59;1.10;;;0.93;;
691;SDS011;328;50.086;8.576;2023-03-25T06:06:28;3.83;;;1.20;;
691;SDS011;328;50.086;8.576;2023-03-25T06:08:59;1.53;;;0.90;;
691;SDS011;328;50.086;8.576;2023-03-25T06:11:27;1.93;;;1.10;;
691;SDS011;328;50.086;8.576;2023-03-25T06:13:54;1.17;;;0.87;;
691;SDS011;328;50.086;8.576;2023-03-25T06:16:22;1.97;;;0.90;;
691;SDS011;328;50.086;8.576;2023-03-25T06:18:53;4.70;;;1.30;;
691;SDS011;328;50.086;8.576;2023-03-25T06:21:24;2.40;;;1.10;;
691;SDS011;328;50.086;8.576;2023-03-25T06:23:54;1.30;;;1.07;;
691;SDS011;328;50.086;8.576;2023-03-25T06:26:23;1.30;;;0.80;;
691;SDS011;328;50.086;8.576;2023-03-25T06:28:51;2.80;;;0.97;;
691;SDS011;328;50.086;8.576;2023-03-25T06:31:20;3.10;;;1.03;;
691;SDS011;328;50.086;8.576;2023-03-25T06:33:51;2.73;;;0.70;;
691;SDS011;328;50.086;8.576;2023-03-25T06:36:19;1.87;;;1.10;;
691;SDS011;328;50.086;8.576;2023-03-25T06:38:48;1.20;;;0.70;;
691;SDS011;328;50.086;8.576;2023-03-25T06:41:17;5.37;;;0.80;;
691;SDS011;328;50.086;8.576;2023-03-25T06:43:46;1.43;;;0.70;;
691;SDS011;328;50.086;8.576;2023-03-25T06:46:14;1.33;;;1.00;;
691;SDS011;328;50.086;8.576;2023-03-25T06:48:41;2.07;;;0.80;;
691;SDS011;328;50.086;8.576;2023-03-25T06:51:09;1.47;;;0.80;;
691;SDS011;328;50.086;8.576;2023-03-25T06:53:37;1.80;;;1.03;;
691;SDS011;328;50.086;8.576;2023-03-25T06:56:04;2.13;;;0.90;;
691;SDS011;328;50.086;8.576;2023-03-25T06:58:34;1.43;;;0.87;;
691;SDS011;328;50.086;8.576;2023-03-25T07:01:02;2.90;;;0.90;;
691;SDS011;328;50.086;8.576;2023-03-25T07:03:33;2.60;;;1.60;;
691;SDS011;328;50.086;8.576;2023-03-25T07:06:01;1.33;;;0.70;;
691;SDS011;328;50.086;8.576;2023-03-25T07:08:29;2.80;;;1.10;;
691;SDS011;328;50.086;8.576;2023-03-25T07:10:59;1.37;;;0.87;;
691;SDS011;328;50.086;8.576;2023-03-25T07:13:27;1.50;;;0.83;;
691;SDS011;328;50.086;8.576;2023-03-25T07:15:57;3.13;;;0.97;;
691;SDS011;328;50.086;8.576;2023-03-25T07:18:25;2.40;;;0.97;;
691;SDS011;328;50.086;8.576;2023-03-25T07:20:53;1.10;;;0.80;;
691;SDS011;328;50.086;8.576;2023-03-25T07:23:20;3.67;;;1.10;;
691;SDS011;328;50.086;8.576;2023-03-25T07:25:48;3.17;;;0.90;;
691;SDS011;328;50.086;8.576;2023-03-25T07:28:16;4.60;;;0.90;;
691;SDS011;328;50.086;8.576;2023-03-25T07:30:44;2.83;;;1.23;;
691;SDS011;328;50.086;8.576;2023-03-25T07:33:12;2.50;;;1.00;;
691;SDS011;328;50.086;8.576;2023-03-25T07:35:40;2.97;;;1.30;;
691;SDS011;328;50.086;8.576;2023-03-25T07:38:08;3.47;;;0.90;;
691;SDS011;328;50.086;8.576;2023-03-25T07:40:36;3.00;;;1.10;;
691;SDS011;328;50.086;8.576;2023-03-25T07:43:04;2.87;;;0.87;;
691;SDS011;328;50.086;8.576;2023-03-25T07:45:31;3.77;;;1.53;;
691;SDS011;328;50.086;8.576;2023-03-25T07:48:09;4.03;;;1.07;;
691;SDS011;328;50.086;8.576;2023-03-25T07:50:41;6.73;;;1.07;;
691;SDS011;328;50.086;8.576;2023-03-25T07:53:09;4.43;;;1.10;;
691;SDS011;328;50.086;8.576;2023-03-25T07:55:36;8.63;;;2.20;;
691;SDS011;328;50.086;8.576;2023-03-25T07:58:04;4.50;;;1.20;;
691;SDS011;328;50.086;8.576;2023-03-25T08:00:31;5.60;;;1.23;;
691;SDS011;328;50.086;8.576;2023-03-25T08:02:59;4.33;;;1.50;;
691;SDS011;328;50.086;8.576;2023-03-25T08:05:27;3.00;;;1.20;;
691;SDS011;328;50.086;8.576;2023-03-25T08:07:56;6.90;;;1.87;;
691;SDS011;328;50.086;8.576;2023-03-25T08:10:25;7.17;;;2.10;;
691;SDS011;328;50.086;8.576;2023-03-25T08:12:53;2.40;;;0.90;;
691;SDS011;328;50.086;8.576;2023-03-25T08:15:21;3.40;;;1.03;;
691;SDS011;328;50.086;8.576;2023-03-25T08:17:49;2.70;;;1.30;;
691;SDS011;328;50.086;8.576;2023-03-25T08:20:18;6.90;;;1.80;;
691;SDS011;328;50.086;8.576;2023-03-25T08:22:46;4.47;;;1.30;;
691;SDS011;328;50.086;8.576;2023-03-25T08:25:15;2.77;;;1.27;;
691;SDS011;328;50.086;8.576;2023-03-25T08:27:42;6.50;;;1.40;;
691;SDS011;328;50.086;8.576;2023-03-25T08:30:10;4.17;;;1.30;;
691;SDS011;328;50.086;8.576;2023-03-25T08:32:38;5.83;;;1.53;;
691;SDS011;328;50.086;8.576;2023-03-25T08:35:06;6.80;;;1.27;;
691;SDS011;328;50.086;8.576;2023-03-25T08:37:34;2.60;;;1.13;;
691;SDS011;328;50.086;8.576;2023-03-25T08:40:03;7.03;;;1.57;;
691;SDS011;328;50.086;8.576;2023-03-25T08:42:35;3.50;;;1.20;;
691;SDS011;328;50.086;8.576;2023-03-25T08:45:03;6.97;;;1.50;;
691;SDS011;328;50.086;8.576;2023-03-25T08:47:32;3.13;;;1.40;;
691;SDS011;328;50.086;8.576;2023-03-25T08:49:59;10.70;;;1.70;;
691;SDS011;328;50.086;8.576;2023-03-25T08:52:27;2.60;;;1.30;;
691;SDS011;328;50.086;8.576;2023-03-25T08:54:54;5.40;;;1.20;;
691;SDS011;328;50.086;8.576;2023-03-25T08:57:22;7.40;;;1.57;;
691;SDS011;328;50.086;8.576;2023-03-25T08:59:51;3.77;;;1.40;;
691;SDS011;328;50.086;8.576;2023-03-25T09:02:18;5.30;;;1.80;;
691;SDS011;328;50.086;8.576;2023-03-25T09:04:46;8.50;;;2.07;;
691;SDS011;328;50.086;8.576;2023-03-25T09:07:14;2.43;;;1.33;;
691;SDS011;328;50.086;8.576;2023-03-25T09:09:45;3.93;;;1.53;;
691;SDS011;328;50.086;8.576;2023-03-25T09:12:12;8.27;;;1.40;;
691;SDS011;328;50.086;8.576;2023-03-25T09:14:40;5.10;;;1.00;;
691;SDS011;328;50.086;8.576;2023-03-25T09:17:09;5.40;;;1.20;;
691;SDS011;328;50.086;8.576;2023-03-25T09:19:36;7.20;;;1.37;;
691;SDS011;328;50.086;8.576;2023-03-25T09:22:04;3.63;;;1.20;;
691;SDS011;328;50.086;8.576;2023-03-25T09:24:33;5.87;;;1.27;;
691;SDS011;328;50.086;8.576;2023-03-25T09:27:01;4.40;;;1.00;;
691;SDS011;328;50.086;8.576;2023-03-25T09:29:29;3.40;;;1.37;;
691;SDS011;328;50.086;8.576;2023-03-25T09:31:56;5.43;;;1.93;;
691;SDS011;328;50.086;8.576;2023-03-25T09:34:26;4.33;;;1.63;;
691;SDS011;328;50.086;8.576;2023-03-25T09:36:54;2.10;;;1.13;;
691;SDS011;328;50.086;8.576;2023-03-25T09:39:22;3.87;;;1.00;;
691;SDS011;328;50.086;8.576;2023-03-25T09:41:53;4.53;;;1.63;;
691;SDS011;328;50.086;8.576;2023-03-25T09:44:28;5.43;;;1.30;;
691;SDS011;328;50.086;8.576;2023-03-25T09:46:57;4.63;;;1.37;;
691;SDS011;328;50.086;8.576;2023-03-25T09:49:30;7.33;;;1.63;;
691;SDS011;328;50.086;8.576;2023-03-25T09:52:03;5.73;;;1.20;;
691;SDS011;328;50.086;8.576;2023-03-25T09:54:33;2.50;;;0.80;;
691;SDS011;328;50.086;8.576;2023-03-25T09:57:03;2.10;;;0.93;;
691;SDS011;328;50.086;8.576;2023-03-25T09:59:35;3.10;;;1.20;;
691;SDS011;328;50.086;8.576;2023-03-25T10:02:05;1.53;;;0.77;;
691;SDS011;328;50.086;8.576;2023-03-25T10:04:51;5.90;;;1.77;;
691;SDS011;328;50.086;8.576;2023-03-25T10:07:35;4.77;;;0.70;;
691;SDS011;328;50.086;8.576;2023-03-25T10:10:11;1.47;;;1.00;;
691;SDS011;328;50.086;8.576;2023-03-25T10:12:44;2.17;;;0.83;;
691;SDS011;328;50.086;8.576;2023-03-25T10:15:16;1.10;;;0.60;;
691;SDS011;328;50.086;8.576;2023-03-25T10:17:53;2.10;;;0.60;;
691;SDS011;328;50.086;8.576;2023-03-25T10:20:33;0.90;;;0.60;;
691;SDS011;328;50.086;8.576;2023-03-25T10:23:09;1.77;;;0.50;;
691;SDS011;328;50.086;8.576;2023-03-25T10:25:43;0.80;;;0.50;;
691;SDS011;328;50.086;8.576;2023-03-25T10:28:15;0.73;;;0.50;;
691;SDS011;328;50.086;8.576;2023-03-25T10:30:44;1.40;;;0.60;;
691;SDS011;328;50.086;8.576;2023-03-25T10:33:14;1.43;;;0.60;;
691;SDS011;328;50.086;8.576;2023-03-25T10:35:46;1.83;;;0.60;;
691;SDS011;328;50.086;8.576;2023-03-25T10:38:16;1.83;;;0.60;;
691;SDS011;328;50.086;8.576;2023-03-25T10:40:46;1.77;;;0.60;;
691;SDS011;328;50.086;8.576;2023-03-25T10:43:17;0.70;;;0.50;;
691;SDS011;328;50.086;8.576;2023-03-25T10:45:52;1.23;;;0.70;;
691;SDS011;328;50.086;8.576;2023-03-25T10:48:22;1.63;;;0.80;;
691;SDS011;328;50.086;8.576;2023-03-25T10:50:54;2.10;;;0.70;;
691;SDS011;328;50.086;8.576;2023-03-25T10:53:27;3.23;;;0.90;;
691;SDS011;328;50.086;8.576;2023-03-25T10:55:56;1.43;;;0.60;;
691;SDS011;328;50.086;8.576;2023-03-25T10:58:25;4.60;;;1.43;;
691;SDS011;328;50.086;8.576;2023-03-25T11:00:52;2.30;;;0.70;;
691;SDS011;328;50.086;8.576;2023-03-25T11:03:21;3.00;;;0.73;;
691;SDS011;328;50.086;8.576;2023-03-25T11:05:53;2.93;;;0.90;;
691;SDS011;328;50.086;8.576;2023-03-25T11:08:20;3.97;;;0.70;;
691;SDS011;328;50.086;8.576;2023-03-25T11:10:51;1.73;;;0.60;;
691;SDS011;328;50.086;8.576;2023-03-25T11:13:23;1.57;;;0.70;;
691;SDS011;328;50.086;8.576;2023-03-25T11:15:52;1.50;;;0.80;;
691;SDS011;328;50.086;8.576;2023-03-25T11:18:21;1.23;;;0.60;;
691;SDS011;328;50.086;8.576;2023-03-25T11:20:54;3.90;;;0.60;;
691;SDS011;328;50.086;8.576;2023-03-25T11:23:24;2.00;;;0.70;;
691;SDS011;328;50.086;8.576;2023-03-25T11:25:54;2.00;;;0.83;;
691;SDS011;328;50.086;8.576;2023-03-25T11:28:23;2.70;;;0.90;;
691;SDS011;328;50.086;8.576;2023-03-25T11:31:11;1.50;;;0.70;;
691;SDS011;328;50.086;8.576;2023-03-25T11:33:41;2.50;;;0.80;;
691;SDS011;328;50.086;8.576;2023-03-25T11:36:12;2.80;;;0.73;;
691;SDS011;328;50.086;8.576;2023-03-25T11:38:50;3.60;;;0.70;;
691;SDS011;328;50.086;8.576;2023-03-25T11:41:19;2.60;;;0.77;;
691;SDS011;328;50.086;8.576;2023-03-25T11:43:47;1.90;;;0.83;;
691;SDS011;328;50.086;8.576;2023-03-25T11:46:15;4.00;;;0.97;;
691;SDS011;328;50.086;8.576;2023-03-25T11:48:44;1.80;;;0.80;;
691;SDS011;328;50.086;8.576;2023-03-25T11:51:14;3.70;;;1.77;;
691;SDS011;328;50.086;8.576;2023-03-25T11:53:43;4.37;;;0.90;;
691;SDS011;328;50.086;8.576;2023-03-25T11:56:14;1.47;;;0.70;;
691;SDS011;328;50.086;8.576;2023-03-25T11:58:45;2.47;;;0.80;;
691;SDS011;328;50.086;8.576;2023-03-25T12:01:19;2.13;;;0.60;;
691;SDS011;328;50.086;8.576;2023-03-25T12:03:48;1.87;;;0.90;;
691;SDS011;328;50.086;8.576;2023-03-25T12:06:19;1.23;;;0.60;;
691;SDS011;328;50.086;8.576;2023-03-25T12:08:48;0.70;;;0.50;;
691;SDS011;328;50.086;8.576;2023-03-25T12:11:17;4.57;;;0.90;;
691;SDS011;328;50.086;8.576;2023-03-25T12:13:50;1.63;;;0.90;;
691;SDS011;328;50.086;8.576;2023-03-25T12:16:28;4.47;;;0.60;;
691;SDS011;328;50.086;8.576;2023-03-25T12:19:03;2.07;;;0.70;;
691;SDS011;328;50.086;8.576;2023-03-25T12:21:40;3.10;;;0.60;;
691;SDS011;328;50.086;8.576;2023-03-25T12:24:18;2.77;;;0.80;;
691;SDS011;328;50.086;8.576;2023-03-25T12:26:58;1.77;;;0.57;;
691;SDS011;328;50.086;8.576;2023-03-25T12:29:35;2.37;;;0.87;;
691;SDS011;328;50.086;8.576;2023-03-25T12:32:10;1.47;;;0.70;;
691;SDS011;328;50.086;8.576;2023-03-25T12:34:46;4.00;;;1.23;;
691;SDS011;328;50.086;8.576;2023-03-25T12:37:25;1.70;;;0.60;;
691;SDS011;328;50.086;8.576;2023-03-25T12:40:02;1.93;;;0.60;;
691;SDS011;328;50.086;8.576;2023-03-25T12:42:47;1.93;;;0.63;;
691;SDS011;328;50.086;8.576;2023-03-25T12:45:27;2.10;;;0.70;;
691;SDS011;328;50.086;8.576;2023-03-25T12:48:06;1.10;;;0.63;;
691;SDS011;328;50.086;8.576;2023-03-25T12:50:40;2.23;;;0.80;;
691;SDS011;328;50.086;8.576;2023-03-25T12:53:24;1.27;;;0.70;;
691;SDS011;328;50.086;8.576;2023-03-25T12:55:59;4.20;;;0.70;;
691;SDS011;328;50.086;8.576;2023-03-25T12:58:38;6.03;;;0.70;;
691;SDS011;328;50.086;8.576;2023-03-25T13:01:28;2.07;;;0.70;;
691;SDS011;328;50.086;8.576;2023-03-25T13:04:09;3.07;;;0.97;;
691;SDS011;328;50.086;8.576;2023-03-25T13:06:50;1.10;;;0.60;;
691;SDS011;328;50.086;8.576;2023-03-25T13:09:25;1.67;;;0.57;;
691;SDS011;328;50.086;8.576;2023-03-25T13:11:56;1.50;;;0.70;;
691;SDS011;328;50.086;8.576;2023-03-25T13:14:27;2.37;;;0.90;;
691;SDS011;328;50.086;8.576;2023-03-25T13:16:58;2.30;;;0.60;;
691;SDS011;328;50.086;8.576;2023-03-25T13:19:29;1.43;;;0.60;;
691;SDS011;328;50.086;8.576;2023-03-25T13:22:01;1.90;;;0.70;;
691;SDS011;328;50.086;8.576;2023-03-25T13:24:35;1.63;;;0.60;;
691;SDS011;328;50.086;8.576;2023-03-25T13:27:04;3.00;;;0.53;;
691;SDS011;328;50.086;8.576;2023-03-25T13:29:33;1.23;;;0.60;;
691;SDS011;328;50.086;8.576;2023-03-25T13:32:05;2.50;;;0.60;;
691;SDS011;328;50.086;8.576;2023-03-25T13:34:39;1.50;;;0.50;;
691;SDS011;328;50.086;8.576;2023-03-25T13:37:10;2.00;;;0.73;;
691;SDS011;328;50.086;8.576;2023-03-25T13:39:50;2.63;;;0.63;;
691;SDS011;328;50.086;8.576;2023-03-25T13:42:22;1.20;;;0.63;;
691;SDS011;328;50.086;8.576;2023-03-25T13:44:53;3.83;;;0.60;;
691;SDS011;328;50.086;8.576;2023-03-25T13:47:23;2.73;;;0.70;;
691;SDS011;328;50.086;8.576;2023-03-25T13:49:53;4.10;;;1.03;;
691;SDS011;328;50.086;8.576;2023-03-25T13:52:22;0.77;;;0.47;;
691;SDS011;328;50.086;8.576;2023-03-25T13:54:55;5.17;;;0.77;;
691;SDS011;328;50.086;8.576;2023-03-25T13:57:29;1.67;;;0.60;;
691;SDS011;328;50.086;8.576;2023-03-25T14:03:22;2.10;;;0.80;;
691;SDS011;328;50.086;8.576;2023-03-25T14:06:00;2.20;;;0.50;;
691;SDS011;328;50.086;8.576;2023-03-25T14:11:57;1.30;;;0.50;;
691;SDS011;328;50.086;8.576;2023-03-25T14:14:29;2.07;;;1.00;;
691;SDS011;328;50.086;8.576;2023-03-25T14:17:00;2.33;;;0.60;;
691;SDS011;328;50.086;8.576;2023-03-25T14:19:30;4.63;;;0.80;;
691;SDS011;328;50.086;8.576;2023-03-25T14:22:05;3.67;;;0.83;;
691;SDS011;328;50.086;8.576;2023-03-25T14:24:34;3.17;;;0.83;;
691;SDS011;328;50.086;8.576;2023-03-25T14:27:03;2.30;;;0.60;;
691;SDS011;328;50.086;8.576;2023-03-25T14:29:34;1.77;;;0.70;;
691;SDS011;328;50.086;8.576;2023-03-25T14:32:05;2.07;;;0.77;;
691;SDS011;328;50.086;8.576;2023-03-25T14:34:38;3.13;;;0.77;;
691;SDS011;328;50.086;8.576;2023-03-25T14:37:17;2.57;;;0.70;;
691;SDS011;328;50.086;8.576;2023-03-25T14:39:52;3.70;;;1.10;;
691;SDS011;328;50.086;8.576;2023-03-25T14:42:25;3.53;;;0.93;;
691;SDS011;328;50.086;8.576;2023-03-25T14:47:57;1.47;;;0.70;;
691;SDS011;328;50.086;8.576;2023-03-25T14:50:30;5.33;;;0.70;;
691;SDS011;328;50.086;8.576;2023-03-25T14:53:00;3.93;;;0.80;;
691;SDS011;328;50.086;8.576;2023-03-25T14:55:30;4.10;;;0.70;;
691;SDS011;328;50.086;8.576;2023-03-25T14:58:00;3.27;;;0.70;;
691;SDS011;328;50.086;8.576;2023-03-25T15:00:31;1.00;;;0.57;;
691;SDS011;328;50.086;8.576;2023-03-25T15:03:00;2.00;;;0.73;;
691;SDS011;328;50.086;8.576;2023-03-25T15:05:29;2.27;;;0.83;;
691;SDS011;328;50.086;8.576;2023-03-25T15:07:58;2.30;;;0.80;;
691;SDS011;328;50.086;8.576;2023-03-25T15:10:37;2.57;;;1.00;;
691;SDS011;328;50.086;8.576;2023-03-25T15:13:08;4.60;;;0.67;;
691;SDS011;328;50.086;8.576;2023-03-25T15:15:51;1.93;;;0.50;;
691;SDS011;328;50.086;8.576;2023-03-25T15:21:29;1.47;;;0.50;;
691;SDS011;328;50.086;8.576;2023-03-25T15:23:59;2.20;;;0.57;;
691;SDS011;328;50.086;8.576;2023-03-25T15:26:31;1.20;;;0.70;;
691;SDS011;328;50.086;8.576;2023-03-25T15:29:04;1.80;;;0.70;;
691;SDS011;328;50.086;8.576;2023-03-25T15:31:47;1.00;;;0.50;;
691;SDS011;328;50.086;8.576;2023-03-25T15:34:28;1.87;;;1.10;;
691;SDS011;328;50.086;8.576;2023-03-25T15:37:12;2.40;;;0.90;;
691;SDS011;328;50.086;8.576;2023-03-25T15:40:14;3.40;;;1.00;;
691;SDS011;328;50.086;8.576;2023-03-25T15:42:58;3.50;;;1.10;;
691;SDS011;328;50.086;8.576;2023-03-25T15:48:32;1.93;;;0.90;;
691;SDS011;328;50.086;8.576;2023-03-25T15:51:26;1.00;;;0.60;;
691;SDS011;328;50.086;8.576;2023-03-25T15:54:20;1.90;;;0.60;;
691;SDS011;328;50.086;8.576;2023-03-25T15:56:53;1.33;;;0.70;;
691;SDS011;328;50.086;8.576;2023-03-25T15:59:27;2.20;;;0.97;;
691;SDS011;328;50.086;8.576;2023-03-25T16:01:58;1.40;;;0.70;;
691;SDS011;328;50.086;8.576;2023-03-25T16:04:29;1.13;;;0.70;;
691;SDS011;328;50.086;8.576;2023-03-25T16:06:59;2.57;;;1.03;;
691;SDS011;328;50.086;8.576;2023-03-25T16:09:27;7.90;;;0.80;;
691;SDS011;328;50.086;8.576;2023-03-25T16:11:57;1.80;;;0.60;;
691;SDS011;328;50.086;8.576;2023-03-25T16:14:27;1.50;;;0.60;;
691;SDS011;328;50.086;8.576;2023-03-25T16:16:57;1.80;;;0.60;;
691;SDS011;328;50.086;8.576;2023-03-25T16:19:27;4.00;;;0.80;;
691;SDS011;328;50.086;8.576;2023-03-25T16:21:59;3.73;;;0.80;;
691;SDS011;328;50.086;8.576;2023-03-25T16:24:29;2.50;;;0.70;;
691;SDS011;328;50.086;8.576;2023-03-25T16:27:06;1.93;;;0.83;;
691;SDS011;328;50.086;8.576;2023-03-25T16:29:35;1.77;;;0.87;;